Time;durP1;ratioP1;P1;durP2;ratioP2;P2;SDS_P1;SDS_P2;PMS_P1;PMS_P2;Temp;Humidity;BMP_temperature;BMP_pressure;BME280_temperature;BME280_humidity;BME280_pressure;Samples;Min_cycle;Max_cycle;Signal;HPM_P1;HPM_P2
2022/09/01 00:01:19;;;;;;;3.92;1.85;;;13.60;99.90;;;;;;5007137;28;20029;-88
2022/09/01 00:03:47;;;;;;;2.58;2.13;;;13.50;99.90;;;;;;5003949;28;20037;-85
2022/09/01 00:06:21;;;;;;;7.18;2.50;;;13.50;99.90;;;;;;4998120;28;20049;-88
2022/09/01 00:08:48;;;;;;;4.10;1.98;;;13.40;99.90;;;;;;4976481;28;20048;-86
2022/09/01 00:11:14;;;;;;;4.18;2.28;;;13.40;99.90;;;;;;4992570;28;20042;-86
2022/09/01 00:13:40;;;;;;;2.40;2.08;;;13.30;99.90;;;;;;5002613;28;20045;-86
2022/09/01 00:16:07;;;;;;;3.05;2.17;;;13.30;99.90;;;;;;4977544;28;20411;-86
2022/09/01 00:18:34;;;;;;;3.28;2.35;;;13.30;99.90;;;;;;4997373;28;20030;-86
2022/09/01 00:20:59;;;;;;;6.65;2.47;;;13.20;99.90;;;;;;5000903;28;20551;-87
2022/09/01 00:23:28;;;;;;;4.45;2.40;;;13.20;99.90;;;;;;5004982;28;20045;-86
2022/09/01 00:25:55;;;;;;;3.97;1.90;;;13.20;99.90;;;;;;4997978;28;20061;-86
2022/09/01 00:28:21;;;;;;;4.13;2.22;;;13.20;99.90;;;;;;4994505;28;20052;-86
2022/09/01 00:30:46;;;;;;;3.45;2.00;;;13.10;99.90;;;;;;4981768;28;20034;-86
2022/09/01 00:33:12;;;;;;;2.90;2.20;;;13.10;99.90;;;;;;4995259;28;20084;-86
2022/09/01 00:35:38;;;;;;;4.13;2.13;;;13.10;99.90;;;;;;4993799;28;20037;-88
2022/09/01 00:38:03;;;;;;;3.85;2.15;;;13.10;99.90;;;;;;5002038;28;20042;-86
2022/09/01 00:40:30;;;;;;;2.88;1.90;;;13.10;99.90;;;;;;5010411;28;21445;-86
2022/09/01 00:42:55;;;;;;;2.72;2.08;;;13.00;99.90;;;;;;5002158;28;20045;-85
2022/09/01 00:45:21;;;;;;;3.85;2.30;;;13.00;99.90;;;;;;4982149;28;20042;-86
2022/09/01 00:47:48;;;;;;;2.40;2.20;;;13.00;99.90;;;;;;4982996;28;20038;-86
2022/09/01 00:50:17;;;;;;;2.72;2.15;;;13.00;99.90;;;;;;4987378;28;20116;-86
2022/09/01 00:52:50;;;;;;;3.00;2.10;;;12.90;99.90;;;;;;5028220;28;20041;-87
2022/09/01 00:55:28;;;;;;;2.85;2.33;;;13.00;99.90;;;;;;4995239;28;20049;-86
2022/09/01 00:57:54;;;;;;;2.90;2.20;;;13.00;99.90;;;;;;5011718;28;20042;-86
2022/09/01 01:00:27;;;;;;;2.47;2.20;;;12.90;99.90;;;;;;5008120;28;20374;-86
2022/09/01 01:02:55;;;;;;;3.13;1.90;;;12.90;99.90;;;;;;4994299;28;20087;-87
2022/09/01 01:05:31;;;;;;;3.35;2.42;;;12.90;99.90;;;;;;4996521;28;20120;-86
2022/09/01 01:07:59;;;;;;;3.25;2.75;;;12.90;99.90;;;;;;5012298;28;20177;-86
2022/09/01 01:10:25;;;;;;;2.90;2.03;;;12.90;99.90;;;;;;4999759;28;20046;-86
2022/09/01 01:12:52;;;;;;;2.30;1.98;;;12.90;99.90;;;;;;4999904;28;20100;-87
2022/09/01 01:15:19;;;;;;;2.20;2.00;;;12.90;99.90;;;;;;5000209;28;20057;-86
2022/09/01 01:17:44;;;;;;;3.97;2.10;;;12.80;99.90;;;;;;4993612;28;20034;-86
2022/09/01 01:23:07;;;;;;;2.30;2.08;;;12.80;99.90;;;;;;5002712;28;20041;-87
2022/09/01 01:25:35;;;;;;;;;;;12.70;99.90;;;;;;4994565;28;20034;-86
2022/09/01 01:28:11;;;;;;;2.88;2.38;;;12.70;99.90;;;;;;5008909;28;19924;-86
2022/09/01 01:30:40;;;;;;;2.60;2.40;;;12.70;99.90;;;;;;5009159;28;21405;-86
2022/09/01 01:33:06;;;;;;;3.05;2.10;;;12.60;99.90;;;;;;4987543;28;20584;-89
2022/09/01 01:35:33;;;;;;;2.90;2.35;;;12.70;99.90;;;;;;5002823;28;20058;-86
2022/09/01 01:38:01;;;;;;;2.55;2.08;;;12.60;99.90;;;;;;5005533;28;20053;-86
2022/09/01 01:40:28;;;;;;;4.57;2.40;;;12.60;99.90;;;;;;5011110;28;20042;-86
2022/09/01 01:42:56;;;;;;;2.95;2.25;;;12.60;99.90;;;;;;5011193;28;20406;-87
2022/09/01 01:45:23;;;;;;;3.50;2.20;;;12.60;99.90;;;;;;5017395;28;20084;-85
2022/09/01 01:47:52;;;;;;;2.25;1.98;;;12.60;99.90;;;;;;5002221;28;20054;-86
2022/09/01 01:50:20;;;;;;;2.33;2.13;;;12.50;99.90;;;;;;4981357;28;20514;-86
2022/09/01 01:52:46;;;;;;;3.15;1.95;;;12.50;99.90;;;;;;4994425;28;20052;-86
2022/09/01 01:55:12;;;;;;;2.50;2.30;;;12.50;99.90;;;;;;4995370;28;20025;-88
2022/09/01 01:57:47;;;;;;;3.00;2.10;;;12.40;99.90;;;;;;4979227;28;20113;-86
2022/09/01 02:00:18;;;;;;;3.70;2.10;;;12.40;99.90;;;;;;4994226;28;20065;-86
2022/09/01 02:02:52;;;;;;;2.60;2.40;;;12.40;99.90;;;;;;4997076;28;20080;-86
2022/09/01 02:05:24;;;;;;;2.40;2.20;;;12.40;99.90;;;;;;4983112;28;20124;-86
2022/09/01 02:07:58;;;;;;;3.15;2.10;;;12.30;99.90;;;;;;5000336;28;20052;-86
2022/09/01 02:10:28;;;;;;;2.95;2.40;;;12.30;99.90;;;;;;5009480;28;20038;-86
2022/09/01 02:12:54;;;;;;;2.92;2.60;;;12.30;99.90;;;;;;4995681;28;20088;-86
2022/09/01 02:15:20;;;;;;;2.78;2.47;;;12.20;99.90;;;;;;4991562;28;20459;-86
2022/09/01 02:17:46;;;;;;;2.40;2.20;;;12.20;99.90;;;;;;5002461;28;20069;-87
2022/09/01 02:20:14;;;;;;;4.55;2.50;;;12.20;99.90;;;;;;5003122;28;20072;-86
2022/09/01 02:22:43;;;;;;;3.08;2.13;;;12.10;99.90;;;;;;4996759;28;20038;-86
2022/09/01 02:25:09;;;;;;;4.03;2.35;;;12.10;99.90;;;;;;4997795;28;20570;-88
2022/09/01 02:27:38;;;;;;;2.78;2.50;;;12.10;99.90;;;;;;4996789;28;20038;-86
2022/09/01 02:30:09;;;;;;;2.63;2.40;;;12.10;99.90;;;;;;4997131;28;20117;-86
2022/09/01 02:32:36;;;;;;;2.40;2.20;;;12.10;99.90;;;;;;4985389;28;20087;-88
2022/09/01 02:35:06;;;;;;;3.22;2.67;;;12.10;99.90;;;;;;4989055;28;20072;-86
2022/09/01 02:37:33;;;;;;;2.97;2.60;;;12.10;99.90;;;;;;5006543;28;20033;-87
2022/09/01 02:39:58;;;;;;;2.80;2.60;;;12.10;99.90;;;;;;5005512;28;20569;-86
2022/09/01 02:42:29;;;;;;;3.22;2.58;;;12.00;99.90;;;;;;4983094;28;20128;-87
2022/09/01 02:44:55;;;;;;;2.75;2.22;;;12.00;99.90;;;;;;5002537;28;20510;-87
2022/09/01 02:47:22;;;;;;;2.67;2.35;;;12.00;99.90;;;;;;4996621;28;20083;-88
2022/09/01 02:49:51;;;;;;;2.42;2.10;;;12.00;99.90;;;;;;4989694;28;20042;-89
2022/09/01 02:52:19;;;;;;;3.33;2.20;;;11.90;99.90;;;;;;5003639;28;20042;-86
2022/09/01 02:54:47;;;;;;;3.42;2.90;;;11.90;99.90;;;;;;5006054;28;20081;-86
2022/09/01 02:57:14;;;;;;;3.65;2.53;;;11.90;99.90;;;;;;5009293;28;20046;-86
2022/09/01 02:59:41;;;;;;;2.38;2.17;;;11.80;99.90;;;;;;5003776;28;20029;-89
2022/09/01 03:02:07;;;;;;;3.00;2.38;;;11.80;99.90;;;;;;4989430;28;20429;-86
2022/09/01 03:04:34;;;;;;;4.18;3.03;;;11.80;99.90;;;;;;4991906;28;20038;-86
2022/09/01 03:07:04;;;;;;;2.40;2.20;;;11.80;99.90;;;;;;4977814;28;20040;-86
2022/09/01 03:09:31;;;;;;;2.38;2.17;;;11.80;99.90;;;;;;4999527;28;20183;-88
2022/09/01 03:11:57;;;;;;;3.00;2.47;;;11.70;99.90;;;;;;4994317;28;20095;-87
2022/09/01 03:14:23;;;;;;;4.15;2.40;;;11.70;99.90;;;;;;5002470;28;20069;-87
2022/09/01 03:16:49;;;;;;;3.25;2.53;;;11.70;99.90;;;;;;5007095;28;20042;-86
2022/09/01 03:19:15;;;;;;;2.45;2.17;;;11.70;99.90;;;;;;5002047;28;20033;-86
2022/09/01 03:21:43;;;;;;;4.15;2.50;;;11.70;99.90;;;;;;4983407;28;20037;-86
2022/09/01 03:24:15;;;;;;;2.83;2.60;;;11.70;99.90;;;;;;5002515;28;20088;-87
2022/09/01 03:26:42;;;;;;;2.88;2.67;;;11.70;99.90;;;;;;4999797;28;20037;-86
2022/09/01 03:29:09;;;;;;;3.13;2.80;;;11.70;99.90;;;;;;5001308;28;20048;-86
2022/09/01 03:31:35;;;;;;;3.10;2.83;;;11.70;99.90;;;;;;4976427;28;20041;-88
2022/09/01 03:34:02;;;;;;;2.83;2.60;;;11.70;99.90;;;;;;5003068;28;20033;-86
2022/09/01 03:36:28;;;;;;;4.38;2.65;;;11.70;99.90;;;;;;5007140;28;20069;-86
2022/09/01 03:38:55;;;;;;;3.42;2.80;;;11.70;99.90;;;;;;5013178;28;20037;-85
2022/09/01 03:41:24;;;;;;;3.10;2.83;;;11.70;99.90;;;;;;5011438;28;20041;-87
2022/09/01 03:43:53;;;;;;;2.97;2.67;;;11.80;99.90;;;;;;4999069;28;20052;-86
2022/09/01 03:46:20;;;;;;;3.45;3.15;;;11.80;99.90;;;;;;5001986;28;20042;-87
2022/09/01 03:48:53;;;;;;;3.22;3.00;;;11.80;99.90;;;;;;4992670;28;20037;-86
2022/09/01 03:51:21;;;;;;;2.93;2.73;;;11.80;99.90;;;;;;5003404;28;20135;-88
2022/09/01 03:53:48;;;;;;;3.55;2.72;;;11.80;99.90;;;;;;5006561;28;20050;-86
2022/09/01 03:56:14;;;;;;;3.08;2.60;;;11.80;99.90;;;;;;4992324;28;20121;-87
2022/09/01 03:58:43;;;;;;;3.72;3.17;;;11.80;99.90;;;;;;5004784;28;20126;-87
2022/09/01 04:01:11;;;;;;;5.15;2.80;;;11.90;99.90;;;;;;4999886;28;20038;-85
2022/09/01 04:03:38;;;;;;;2.83;2.63;;;11.90;99.90;;;;;;5005715;28;20493;-86
2022/09/01 04:06:06;;;;;;;3.03;2.78;;;11.90;99.90;;;;;;4993815;28;20037;-86
2022/09/01 04:08:32;;;;;;;3.40;3.10;;;12.00;99.90;;;;;;4999756;28;20564;-85
2022/09/01 04:11:01;;;;;;;3.30;3.00;;;12.00;99.90;;;;;;4978953;28;20067;-86
2022/09/01 04:13:35;;;;;;;3.58;3.28;;;12.00;99.90;;;;;;4992639;28;20418;-88
2022/09/01 04:16:01;;;;;;;3.15;2.90;;;12.00;99.90;;;;;;4998459;28;20084;-86
2022/09/01 04:18:27;;;;;;;4.10;3.53;;;12.00;99.90;;;;;;5009889;28;20057;-86
2022/09/01 04:20:58;;;;;;;3.20;3.00;;;12.00;99.90;;;;;;4996818;28;20565;-85
2022/09/01 04:23:32;;;;;;;4.13;2.90;;;12.10;99.90;;;;;;4998024;28;20034;-86
2022/09/01 04:26:08;;;;;;;4.03;3.05;;;12.10;99.90;;;;;;4978256;28;20411;-88
2022/09/01 04:28:37;;;;;;;3.28;3.00;;;12.10;99.90;;;;;;4990247;28;20033;-86
2022/09/01 04:31:08;;;;;;;4.93;3.35;;;12.10;99.90;;;;;;4996594;28;20076;-86
2022/09/01 04:33:43;;;;;;;3.47;2.90;;;12.10;99.90;;;;;;5003483;28;20033;-86
2022/09/01 04:36:21;;;;;;;3.97;3.10;;;12.10;99.90;;;;;;5009753;28;20026;-88
2022/09/01 04:38:57;;;;;;;3.38;2.55;;;12.10;99.90;;;;;;5005158;28;20030;-86
2022/09/01 04:41:26;;;;;;;3.25;3.00;;;12.00;99.90;;;;;;5021160;28;20046;-89
2022/09/01 04:43:55;;;;;;;3.60;3.30;;;12.00;99.90;;;;;;5006573;28;20041;-86
2022/09/01 04:46:21;;;;;;;3.63;3.33;;;12.00;99.90;;;;;;4991374;28;20029;-86
2022/09/01 04:48:50;;;;;;;6.38;3.55;;;12.00;99.90;;;;;;5000134;28;20589;-85
2022/09/01 04:51:16;;;;;;;4.00;3.60;;;12.00;99.90;;;;;;5005461;28;20060;-86
2022/09/01 04:53:47;;;;;;;3.20;2.90;;;12.00;99.90;;;;;;4995932;28;20037;-86
2022/09/01 04:56:18;;;;;;;7.03;3.55;;;12.00;99.90;;;;;;4994337;28;20057;-88
2022/09/01 04:58:45;;;;;;;4.97;3.83;;;11.90;99.90;;;;;;4981699;28;20029;-86
2022/09/01 05:01:20;;;;;;;4.85;3.22;;;11.90;99.90;;;;;;5004903;28;20042;-89
2022/09/01 05:03:56;;;;;;;3.83;3.53;;;11.90;99.90;;;;;;5014513;28;20041;-87
2022/09/01 05:06:22;;;;;;;4.15;3.17;;;11.90;99.90;;;;;;4997383;28;20083;-87
2022/09/01 05:08:48;;;;;;;3.45;3.08;;;11.90;99.90;;;;;;5004412;28;20486;-87
2022/09/01 05:11:17;;;;;;;3.65;3.35;;;11.90;99.90;;;;;;5001883;28;20057;-86
2022/09/01 05:13:45;;;;;;;4.90;3.45;;;11.90;99.90;;;;;;4996987;28;20030;-80
2022/09/01 05:16:14;;;;;;;3.30;2.95;;;11.90;99.90;;;;;;4992263;28;20061;-86
2022/09/01 05:18:46;;;;;;;3.42;3.13;;;11.90;99.90;;;;;;5009443;28;20033;-86
2022/09/01 05:21:17;;;;;;;4.15;3.75;;;11.80;99.90;;;;;;5006361;28;20398;-89
2022/09/01 05:23:43;;;;;;;5.18;3.58;;;11.80;99.90;;;;;;5024354;28;20035;-89
2022/09/01 05:26:24;;;;;;;5.07;3.40;;;11.90;99.90;;;;;;5036519;28;20045;-87
2022/09/01 05:28:53;;;;;;;4.13;3.50;;;11.90;99.90;;;;;;5009888;28;20571;-86
2022/09/01 05:31:20;;;;;;;4.22;3.78;;;11.90;99.90;;;;;;5018047;28;20038;-86
2022/09/01 05:33:48;;;;;;;4.13;3.72;;;11.90;99.90;;;;;;5001293;28;20034;-86
2022/09/01 05:36:21;;;;;;;4.25;3.72;;;11.90;99.90;;;;;;5003518;28;20037;-88
2022/09/01 05:38:48;;;;;;;6.18;3.72;;;11.90;99.90;;;;;;5004632;28;20501;-86
2022/09/01 05:41:18;;;;;;;5.45;3.78;;;11.90;99.90;;;;;;5008495;28;20033;-86
2022/09/01 05:43:47;;;;;;;5.78;4.10;;;11.90;99.90;;;;;;5004004;28;20498;-86
2022/09/01 05:46:15;;;;;;;3.90;3.60;;;11.90;99.90;;;;;;5000845;28;20034;-86
2022/09/01 05:48:42;;;;;;;4.63;3.58;;;12.00;99.90;;;;;;4997949;28;20083;-86
2022/09/01 05:51:10;;;;;;;4.15;3.75;;;12.00;99.90;;;;;;4996312;28;20064;-86
2022/09/01 05:53:36;;;;;;;3.90;3.42;;;12.00;99.90;;;;;;5008454;28;21365;-86
2022/09/01 05:56:06;;;;;;;3.83;3.53;;;12.00;99.90;;;;;;4995075;28;20048;-87
2022/09/01 05:58:33;;;;;;;4.03;3.63;;;12.10;99.90;;;;;;5007414;28;20041;-86
2022/09/01 06:00:59;;;;;;;4.68;3.90;;;12.10;99.90;;;;;;4995066;28;20033;-87
2022/09/01 06:03:26;;;;;;;4.82;4.00;;;12.10;99.90;;;;;;5005726;28;20034;-87
2022/09/01 06:06:00;;;;;;;5.05;4.18;;;12.20;99.90;;;;;;4996927;28;20483;-86
2022/09/01 06:08:27;;;;;;;;;;;12.20;99.90;;;;;;5006243;28;20046;-86
2022/09/01 06:10:53;;;;;;;5.15;4.10;;;12.30;99.90;;;;;;4992893;28;20175;-86
2022/09/01 06:13:20;;;;;;;4.35;3.95;;;12.30;99.90;;;;;;5010412;28;20049;-88
2022/09/01 06:15:47;;;;;;;4.45;3.72;;;12.30;99.90;;;;;;5005124;28;20033;-86
2022/09/01 06:18:13;;;;;;;4.50;3.78;;;12.40;99.90;;;;;;4986185;28;20038;-88
2022/09/01 06:20:45;;;;;;;4.63;4.20;;;12.40;99.90;;;;;;5011628;28;20042;-87
2022/09/01 06:23:14;;;;;;;4.15;3.53;;;12.50;99.90;;;;;;4995077;28;20045;-86
2022/09/01 06:25:45;;;;;;;5.30;4.13;;;12.50;99.90;;;;;;4988590;28;20038;-87
2022/09/01 06:28:20;;;;;;;3.60;3.22;;;12.60;99.90;;;;;;4983009;28;20480;-86
2022/09/01 06:30:47;;;;;;;5.85;3.88;;;12.60;99.90;;;;;;5007416;28;20517;-88
2022/09/01 06:33:13;;;;;;;4.65;3.58;;;12.70;99.90;;;;;;5008687;28;20046;-86
2022/09/01 06:35:42;;;;;;;5.45;3.80;;;12.70;99.90;;;;;;4985772;28;20037;-86
2022/09/01 06:38:09;;;;;;;4.35;3.95;;;12.80;99.90;;;;;;5006109;28;20096;-86
2022/09/01 06:40:40;;;;;;;4.30;3.92;;;12.80;99.90;;;;;;4998828;28;20041;-86
2022/09/01 06:43:06;;;;;;;4.00;3.70;;;12.90;99.90;;;;;;4994274;28;20030;-86
2022/09/01 06:45:39;;;;;;;3.78;3.38;;;13.00;99.90;;;;;;5008746;28;20129;-86
2022/09/01 06:48:05;;;;;;;4.38;3.72;;;13.00;99.90;;;;;;5008423;28;20045;-86
2022/09/01 06:50:31;;;;;;;4.15;3.63;;;13.10;99.90;;;;;;5000980;28;20116;-86
2022/09/01 06:53:17;;;;;;;5.45;3.50;;;13.20;99.90;;;;;;4992405;28;20238;-86
2022/09/01 06:55:45;;;;;;;6.93;4.43;;;13.30;99.90;;;;;;4982081;28;20548;-86
2022/09/01 06:58:14;;;;;;;3.53;3.22;;;13.40;99.90;;;;;;5011939;28;20037;-87
2022/09/01 07:00:41;;;;;;;5.80;3.47;;;13.50;99.90;;;;;;4999163;28;20045;-86
2022/09/01 07:03:14;;;;;;;4.00;3.53;;;13.50;99.90;;;;;;5013720;28;20191;-87
2022/09/01 07:05:41;;;;;;;6.53;3.85;;;13.70;99.90;;;;;;4999529;28;20044;-87
2022/09/01 07:08:12;;;;;;;4.25;3.20;;;13.70;99.90;;;;;;5008634;28;20080;-87
2022/09/01 07:10:44;;;;;;;4.32;3.60;;;13.90;99.90;;;;;;4990509;28;20046;-87
2022/09/01 07:13:19;;;;;;;4.53;3.20;;;14.00;99.90;;;;;;5003522;28;20116;-86
2022/09/01 07:15:49;;;;;;;4.38;3.63;;;14.00;99.90;;;;;;5003217;28;20038;-87
2022/09/01 07:18:20;;;;;;;3.30;3.10;;;14.20;99.90;;;;;;5003080;28;20038;-89
2022/09/01 07:20:47;;;;;;;4.30;3.97;;;14.30;99.90;;;;;;4992498;28;20048;-87
2022/09/01 07:23:18;;;;;;;4.18;3.40;;;14.40;99.90;;;;;;5012365;28;20036;-85
2022/09/01 07:25:46;;;;;;;3.95;3.42;;;14.50;99.90;;;;;;5016018;28;20115;-85
2022/09/01 07:28:13;;;;;;;5.30;3.45;;;14.50;99.90;;;;;;4994074;28;20038;-85
2022/09/01 07:30:58;;;;;;;4.90;3.55;;;14.60;99.90;;;;;;4998900;28;20041;-86
2022/09/01 07:33:26;;;;;;;4.80;3.20;;;14.80;99.90;;;;;;5002954;28;20118;-85
2022/09/01 07:35:54;;;;;;;4.57;3.42;;;14.90;99.90;;;;;;4994746;28;20041;-86
2022/09/01 07:38:29;;;;;;;5.85;3.70;;;15.10;99.90;;;;;;5007686;28;20042;-86
2022/09/01 07:40:55;;;;;;;4.03;3.40;;;15.30;99.90;;;;;;5005869;28;20038;-85
2022/09/01 07:43:24;;;;;;;4.65;3.15;;;15.50;99.90;;;;;;5005433;28;20034;-85
2022/09/01 07:45:54;;;;;;;3.55;2.80;;;15.80;99.90;;;;;;5004056;28;20449;-88
2022/09/01 07:48:22;;;;;;;4.55;2.70;;;16.00;99.90;;;;;;4997866;28;20033;-85
2022/09/01 07:50:51;;;;;;;3.70;2.78;;;16.30;99.90;;;;;;4982322;28;20042;-86
2022/09/01 07:53:23;;;;;;;3.42;2.53;;;16.60;99.90;;;;;;5000771;28;20042;-86
2022/09/01 07:55:51;;;;;;;4.93;2.50;;;16.80;99.90;;;;;;5001058;28;20029;-85
2022/09/01 07:58:19;;;;;;;3.50;3.08;;;17.20;99.90;;;;;;4997998;28;20073;-85
2022/09/01 08:00:46;;;;;;;5.20;2.78;;;17.50;99.90;;;;;;4987793;28;20493;-85
2022/09/01 08:03:13;;;;;;;2.83;2.60;;;17.80;99.90;;;;;;4988731;28;20069;-87
2022/09/01 08:05:39;;;;;;;3.63;2.70;;;18.10;99.90;;;;;;5010454;28;20045;-85
2022/09/01 08:08:05;;;;;;;2.92;2.30;;;18.50;99.90;;;;;;4991534;28;20485;-85
2022/09/01 08:10:31;;;;;;;2.83;2.30;;;18.80;99.90;;;;;;4993236;28;20038;-85
2022/09/01 08:12:57;;;;;;;2.33;2.10;;;19.10;99.90;;;;;;5004542;28;20413;-85
2022/09/01 08:15:24;;;;;;;3.25;2.22;;;19.30;99.90;;;;;;4991437;28;20034;-86
2022/09/01 08:17:50;;;;;;;4.13;2.17;;;19.60;99.90;;;;;;5004373;28;20037;-86
2022/09/01 08:20:15;;;;;;;5.65;2.38;;;19.80;99.90;;;;;;5008962;28;20034;-86
2022/09/01 08:22:41;;;;;;;2.03;1.83;;;20.10;99.90;;;;;;4998135;28;20046;-86
2022/09/01 08:25:08;;;;;;;4.53;1.80;;;20.20;99.90;;;;;;4999606;28;20045;-86
2022/09/01 08:27:37;;;;;;;4.18;2.05;;;20.50;99.90;;;;;;4978310;28;20813;-85
2022/09/01 08:30:05;;;;;;;2.13;1.77;;;20.60;99.90;;;;;;5004654;28;20037;-86
2022/09/01 08:32:31;;;;;;;3.92;1.90;;;20.90;99.90;;;;;;4992631;28;20038;-86
2022/09/01 08:34:57;;;;;;;2.78;1.73;;;21.20;99.90;;;;;;5002325;28;20409;-86
2022/09/01 08:37:24;;;;;;;2.08;1.80;;;21.40;99.90;;;;;;4985142;28;20080;-87
2022/09/01 08:39:51;;;;;;;2.75;1.63;;;21.50;99.90;;;;;;4990321;28;20030;-86
2022/09/01 08:42:38;;;;;;;4.38;1.98;;;21.70;99.90;;;;;;4975611;28;20044;-86
2022/09/01 08:45:23;;;;;;;2.22;1.45;;;22.00;97.30;;;;;;4996911;28;20049;-86
2022/09/01 08:47:56;;;;;;;1.80;1.38;;;22.40;96.40;;;;;;4981525;28;20045;-86
2022/09/01 08:50:22;;;;;;;3.92;1.30;;;22.70;99.10;;;;;;4986929;28;20037;-86
2022/09/01 08:53:06;;;;;;;2.88;1.17;;;23.10;99.40;;;;;;4993735;28;20049;-86
2022/09/01 08:55:40;;;;;;;2.42;1.48;;;23.30;92.60;;;;;;5004090;28;20041;-86
2022/09/01 08:58:09;;;;;;;2.55;1.38;;;23.60;93.20;;;;;;4999402;28;20038;-86
2022/09/01 09:00:43;;;;;;;2.55;1.48;;;23.80;91.90;;;;;;4984871;28;20430;-88
2022/09/01 09:03:37;;;;;;;2.75;1.10;;;24.00;75.20;;;;;;5008006;28;20034;-86
2022/09/01 09:06:33;;;;;;;3.45;1.40;;;24.20;73.70;;;;;;4999282;28;20038;-86
2022/09/01 09:09:06;;;;;;;2.45;1.05;;;24.40;75.60;;;;;;4994269;28;20493;-86
2022/09/01 09:11:50;;;;;;;1.85;1.10;;;24.50;73.40;;;;;;4995146;28;20126;-86
2022/09/01 09:14:19;;;;;;;1.77;0.90;;;24.50;68.60;;;;;;4995290;28;20042;-85
2022/09/01 09:16:52;;;;;;;1.35;1.05;;;24.70;73.20;;;;;;4998434;28;20049;-86
2022/09/01 09:19:27;;;;;;;3.25;0.93;;;24.70;69.20;;;;;;5001382;28;20073;-88
2022/09/01 09:21:55;;;;;;;2.05;0.90;;;24.90;68.60;;;;;;5003295;28;20404;-86
2022/09/01 09:24:48;;;;;;;2.55;1.00;;;25.00;65.70;;;;;;4989242;28;20040;-87
2022/09/01 09:27:32;;;;;;;1.27;1.00;;;25.30;66.00;;;;;;4989164;28;20045;-87
2022/09/01 09:30:00;;;;;;;3.60;1.10;;;25.60;63.50;;;;;;4998633;28;20037;-86
2022/09/01 09:32:59;;;;;;;1.73;0.88;;;25.70;63.00;;;;;;5005678;28;20046;-86
2022/09/01 09:35:38;;;;;;;3.17;0.80;;;25.80;56.80;;;;;;4995123;28;20401;-88
2022/09/01 09:38:33;;;;;;;1.63;0.95;;;25.70;60.80;;;;;;4996669;28;20037;-86
2022/09/01 09:41:24;;;;;;;2.47;0.90;;;25.80;58.00;;;;;;4986594;28;20387;-87
2022/09/01 09:44:12;;;;;;;2.15;0.82;;;25.90;58.40;;;;;;4997637;28;20758;-86
2022/09/01 09:46:41;;;;;;;2.92;0.80;;;26.00;56.40;;;;;;4988969;28;20038;-86
2022/09/01 09:49:09;;;;;;;1.42;1.05;;;26.20;56.40;;;;;;5004297;28;20041;-87
2022/09/01 09:51:39;;;;;;;0.80;0.70;;;26.20;55.90;;;;;;4989183;28;20033;-85
2022/09/01 09:54:23;;;;;;;1.83;0.80;;;26.40;55.70;;;;;;4985268;28;20049;-87
2022/09/01 09:57:12;;;;;;;2.28;0.82;;;26.80;54.20;;;;;;4996999;28;20041;-86
2022/09/01 10:00:02;;;;;;;2.25;0.90;;;26.80;50.20;;;;;;4990128;28;20091;-86
2022/09/01 10:02:41;;;;;;;1.10;0.80;;;27.00;51.90;;;;;;5002762;28;20575;-85
2022/09/01 10:05:47;;;;;;;2.60;0.82;;;26.90;51.70;;;;;;5006781;28;20052;-86
2022/09/01 10:08:35;;;;;;;1.98;0.80;;;26.90;51.70;;;;;;4999843;28;20116;-85
2022/09/01 10:11:04;;;;;;;2.55;0.90;;;27.00;50.90;;;;;;5005603;28;20504;-87
2022/09/01 10:13:34;;;;;;;1.35;0.65;;;27.20;50.10;;;;;;5005690;28;20706;-85
2022/09/01 10:16:06;;;;;;;2.13;0.80;;;27.30;50.20;;;;;;4998333;28;20490;-85
2022/09/01 10:18:39;;;;;;;0.82;0.82;;;27.30;49.90;;;;;;4986196;28;20509;-87
2022/09/01 10:21:14;;;;;;;2.00;0.90;;;27.40;49.60;;;;;;4989349;28;20486;-85
2022/09/01 10:23:42;;;;;;;1.27;0.70;;;27.60;49.00;;;;;;5000830;28;20125;-86
2022/09/01 10:26:37;;;;;;;2.25;0.68;;;27.50;48.80;;;;;;5007802;28;20049;-86
2022/09/01 10:29:09;;;;;;;2.55;0.80;;;27.70;47.50;;;;;;5015927;28;20065;-86
2022/09/01 10:31:36;;;;;;;1.25;0.63;;;28.10;49.10;;;;;;4983531;28;20033;-86
2022/09/01 10:34:09;;;;;;;0.90;0.70;;;28.60;48.00;;;;;;4994131;28;20076;-84
2022/09/01 10:36:42;;;;;;;1.77;0.60;;;28.90;47.20;;;;;;5005592;28;20037;-86
2022/09/01 10:39:15;;;;;;;4.15;0.70;;;28.70;45.80;;;;;;5005770;28;20081;-86
2022/09/01 10:41:49;;;;;;;1.45;0.50;;;28.90;46.80;;;;;;4993629;28;20053;-86
2022/09/01 10:44:32;;;;;;;0.82;0.80;;;28.80;46.10;;;;;;4996482;28;20040;-86
2022/09/01 10:47:02;;;;;;;0.80;0.73;;;28.70;43.40;;;;;;4987253;28;20045;-87
2022/09/01 10:49:31;;;;;;;1.10;0.90;;;28.80;45.20;;;;;;5011273;28;20041;-89
2022/09/01 10:51:57;;;;;;;0.52;0.50;;;28.70;45.20;;;;;;5019795;28;20041;-88
2022/09/01 10:54:38;;;;;;;2.67;0.70;;;28.80;44.40;;;;;;5024606;28;20038;-88
2022/09/01 10:57:32;;;;;;;1.48;0.77;;;29.10;43.40;;;;;;5008393;28;20038;-86
2022/09/01 11:00:23;;;;;;;1.27;0.52;;;29.20;41.20;;;;;;4963053;28;20050;-87
2022/09/01 11:03:25;;;;;;;1.58;0.70;;;29.40;41.00;;;;;;5012989;28;20136;-87
2022/09/01 11:06:52;;;;;;;0.88;0.50;;;29.50;42.00;;;;;;4993547;28;20060;-86
2022/09/01 11:09:25;;;;;;;1.20;0.70;;;29.70;41.50;;;;;;4943711;28;20070;-85
2022/09/01 11:12:12;;;;;;;1.05;0.60;;;29.90;41.80;;;;;;4993224;28;20034;-86
2022/09/01 11:14:52;;;;;;;0.75;0.50;;;29.80;40.50;;;;;;5000752;28;20470;-86
2022/09/01 11:17:22;;;;;;;2.78;0.60;;;29.80;39.40;;;;;;4999401;28;20042;-87
2022/09/01 11:20:03;;;;;;;3.60;0.80;;;29.90;40.70;;;;;;4988324;28;20045;-86
2022/09/01 11:22:52;;;;;;;1.17;0.60;;;29.90;40.50;;;;;;4987085;28;20041;-86
2022/09/01 11:25:36;;;;;;;3.47;0.70;;;29.10;40.60;;;;;;4994717;28;20037;-86
2022/09/01 11:28:14;;;;;;;0.98;0.50;;;28.80;41.50;;;;;;4998143;28;20421;-86
2022/09/01 11:30:50;;;;;;;1.27;0.70;;;28.40;41.70;;;;;;5014486;28;20033;-86
2022/09/01 11:33:25;;;;;;;0.85;0.70;;;28.00;42.20;;;;;;4991530;28;20038;-86
2022/09/01 11:36:03;;;;;;;0.95;0.70;;;28.20;42.30;;;;;;4991096;28;20041;-86
2022/09/01 11:38:40;;;;;;;1.23;0.60;;;29.00;43.30;;;;;;4996825;28;20193;-86
2022/09/01 11:41:05;;;;;;;1.02;0.80;;;29.30;42.00;;;;;;5012954;28;20034;-87
2022/09/01 11:43:34;;;;;;;1.02;0.85;;;29.80;41.70;;;;;;5018838;28;20714;-85
2022/09/01 11:46:28;;;;;;;1.58;0.80;;;30.20;42.20;;;;;;5016852;28;20049;-87
2022/09/01 11:48:56;;;;;;;1.67;0.88;;;30.70;40.20;;;;;;5017410;28;20489;-88
2022/09/01 11:51:25;;;;;;;1.25;0.82;;;30.70;39.40;;;;;;5005778;28;20541;-86
2022/09/01 11:53:59;;;;;;;2.08;0.85;;;30.20;39.20;;;;;;4994206;28;20040;-87
2022/09/01 11:56:27;;;;;;;0.90;0.70;;;29.20;38.80;;;;;;5015539;28;20042;-86
2022/09/01 11:58:53;;;;;;;1.13;0.55;;;29.00;39.50;;;;;;4987592;28;20038;-86
2022/09/01 12:01:37;;;;;;;2.88;0.80;;;28.60;39.00;;;;;;4992304;28;20115;-86
2022/09/01 12:04:26;;;;;;;1.35;0.90;;;28.90;40.70;;;;;;4995044;28;20553;-87
2022/09/01 12:07:07;;;;;;;2.83;1.00;;;29.30;38.70;;;;;;4984710;28;20121;-86
2022/09/01 12:09:45;;;;;;;4.70;0.70;;;30.00;39.40;;;;;;5012529;28;20653;-88
2022/09/01 12:12:32;;;;;;;1.25;0.90;;;30.50;39.80;;;;;;5009953;28;20038;-86
2022/09/01 12:15:23;;;;;;;1.60;0.70;;;31.00;38.80;;;;;;5004647;28;20046;-86
2022/09/01 12:18:07;;;;;;;2.95;0.73;;;31.40;37.90;;;;;;4985336;28;20568;-86
2022/09/01 12:20:40;;;;;;;1.42;0.60;;;31.90;37.90;;;;;;5003398;28;20041;-88
2022/09/01 12:23:35;;;;;;;1.92;0.70;;;32.50;37.40;;;;;;5000449;28;20036;-88
2022/09/01 12:26:36;;;;;;;1.63;0.77;;;32.30;36.40;;;;;;4994503;28;20153;-90
2022/09/01 12:29:04;;;;;;;0.90;0.60;;;32.20;33.60;;;;;;4970720;28;20053;-87
2022/09/01 12:31:30;;;;;;;1.38;0.60;;;32.50;35.70;;;;;;4993279;28;20054;-87
2022/09/01 12:33:55;;;;;;;1.48;0.60;;;32.50;35.60;;;;;;5005101;28;20064;-87
2022/09/01 12:36:35;;;;;;;1.83;0.65;;;32.90;35.40;;;;;;4990485;28;20034;-88
2022/09/01 12:39:28;;;;;;;1.92;0.63;;;33.10;34.30;;;;;;5001480;28;20033;-86
2022/09/01 12:42:06;;;;;;;1.77;0.60;;;32.60;35.20;;;;;;4998650;28;20391;-87
2022/09/01 12:44:43;;;;;;;0.75;0.50;;;31.40;35.40;;;;;;5012135;28;20080;-87
2022/09/01 12:47:39;;;;;;;1.85;0.80;;;30.40;36.00;;;;;;5007003;28;20041;-87
2022/09/01 12:50:10;;;;;;;1.70;0.80;;;29.40;37.40;;;;;;4979293;28;20548;-86
2022/09/01 12:52:49;;;;;;;2.33;0.70;;;28.40;38.30;;;;;;4996984;28;20077;-87
2022/09/01 12:55:22;;;;;;;2.25;0.90;;;27.70;39.40;;;;;;4986609;23;20049;-29
2022/09/01 12:57:55;;;;;;;1.08;0.60;;;27.80;40.30;;;;;;4991584;28;20038;-29
2022/09/01 13:00:25;;;;;;;0.70;0.60;;;29.00;40.10;;;;;;4991522;28;20480;-29
2022/09/01 13:03:07;;;;;;;1.30;0.55;;;29.90;38.90;;;;;;4991358;28;20171;-29
2022/09/01 13:05:40;;;;;;;1.70;0.70;;;30.90;37.00;;;;;;4992280;28;20046;-28
2022/09/01 13:08:24;;;;;;;1.20;0.70;;;31.60;37.10;;;;;;4993084;28;20093;-29
2022/09/01 13:10:56;;;;;;;1.20;0.65;;;32.20;36.00;;;;;;4990558;28;20364;-32
2022/09/01 13:13:23;;;;;;;3.15;0.85;;;32.80;35.30;;;;;;4988551;28;20034;-32
2022/09/01 13:15:52;;;;;;;2.58;0.70;;;32.40;33.80;;;;;;4990884;28;20042;-32